CheckWX is a tool to help pilots better visualize weather data.  It is not intended as a substitute for an official pre-flight weather briefing.

12:13:52 UTC

EDHI METAR
Hamburg-Finkenwerder Airport
Hamburg, Germany
Current

24 mins ago

EDHI 161150Z 25011KT 9999 FEW012 SCT020 BKN045 14/12 Q1008
Observed
Oct-16 @ 11:50 UTC
Wind
  • 250° at 11 KTS
Visibility
10,000+ meters
Flight Rules
VFR
Cloud Levels
  • Few at 1,200' AGL
  • Scattered at 2,000' AGL
  • Broken at 4,500' AGL
Temperature
14°C / 57°F
Dewpoint
12°C / 54°F
Humidity
88%
Altimeter
29.76" Hg
Pressure
1007.92 hPa
Previous

54 mins ago

EDHI 161120Z 25013KT 9999 FEW009 SCT011 BKN016 14/12 Q1008
Observed
Oct-16 @ 11:20 UTC
Wind
  • 250° at 13 KTS
Visibility
10,000+ meters
Flight Rules
MVFR
Cloud Levels
  • Few at 900' AGL
  • Scattered at 1,100' AGL
  • Broken at 1,600' AGL
Temperature
14°C / 57°F
Dewpoint
12°C / 54°F
Humidity
88%
Altimeter
29.76" Hg
Pressure
1007.92 hPa
Previous

1 hour ago

EDHI 161050Z 25012KT 9000 -RA BKN009 BKN031 14/12 Q1008
Observed
Oct-16 @ 10:50 UTC
Wind
  • 250° at 12 KTS
Visibility
9,000 meters
Flight Rules
IFR
Conditions
Light Rain
Cloud Levels
  • Broken at 900' AGL
  • Broken at 3,100' AGL
Temperature
14°C / 57°F
Dewpoint
12°C / 54°F
Humidity
88%
Altimeter
29.76" Hg
Pressure
1007.92 hPa